Time;durP1;ratioP1;P1;durP2;ratioP2;P2;SDS_P1;SDS_P2;PMS_P1;PMS_P2;Temp;Humidity;BMP_temperature;BMP_pressure;BME280_temperature;BME280_humidity;BME280_pressure;Samples;Min_cycle;Max_cycle;Signal;HPM_P1;HPM_P2
2022/07/16 00:01:56;;;;;;;5.87;5.30;;;14.90;74.60;;;;;;5060558;28;20522;-48
2022/07/16 00:04:24;;;;;;;4.80;4.20;;;14.90;74.50;;;;;;5063214;28;20478;-48
2022/07/16 00:06:51;;;;;;;7.40;6.57;;;14.70;75.00;;;;;;5058669;28;20505;-48
2022/07/16 00:09:18;;;;;;;9.20;6.23;;;14.60;75.60;;;;;;5061787;28;20477;-48
2022/07/16 00:11:45;;;;;;;11.80;7.20;;;14.50;75.30;;;;;;5036988;28;20949;-48
2022/07/16 00:14:12;;;;;;;9.40;6.13;;;14.50;75.70;;;;;;5056774;28;20482;-48
2022/07/16 00:16:39;;;;;;;11.20;8.03;;;14.40;75.60;;;;;;5059517;28;20462;-48
2022/07/16 00:19:18;;;;;;;6.37;4.90;;;14.20;76.00;;;;;;5043303;28;20489;-48
2022/07/16 00:21:48;;;;;;;9.83;8.70;;;14.30;76.60;;;;;;5035119;28;20531;-48
2022/07/16 00:24:15;;;;;;;7.53;6.30;;;14.20;75.80;;;;;;5032978;28;20470;-48
2022/07/16 00:26:42;;;;;;;8.43;7.27;;;14.20;76.20;;;;;;5051434;28;20505;-49
2022/07/16 00:29:09;;;;;;;6.47;5.17;;;14.20;75.90;;;;;;5056060;28;20475;-48
2022/07/16 00:31:36;;;;;;;11.13;7.30;;;14.10;76.70;;;;;;5061327;28;20484;-49
2022/07/16 00:34:03;;;;;;;8.20;5.47;;;14.00;76.30;;;;;;5062472;28;20565;-48
2022/07/16 00:36:30;;;;;;;6.73;6.13;;;14.00;76.20;;;;;;5055022;28;20486;-48
2022/07/16 00:38:58;;;;;;;8.23;5.27;;;13.90;77.10;;;;;;5052461;28;20489;-49
2022/07/16 00:41:24;;;;;;;8.50;6.83;;;13.90;76.10;;;;;;5047748;28;20848;-48
2022/07/16 00:43:53;;;;;;;8.20;7.40;;;13.90;76.80;;;;;;5049850;28;20490;-48
2022/07/16 00:46:20;;;;;;;7.87;5.93;;;13.80;75.90;;;;;;5052800;28;20485;-49
2022/07/16 00:48:47;;;;;;;8.30;7.43;;;13.80;75.50;;;;;;5058279;28;20475;-48
2022/07/16 00:51:15;;;;;;;7.50;6.00;;;13.80;75.30;;;;;;5064500;28;20476;-49
2022/07/16 00:53:43;;;;;;;11.10;7.30;;;13.80;75.60;;;;;;5056580;28;20820;-48
2022/07/16 00:56:12;;;;;;;6.17;5.57;;;13.80;75.40;;;;;;5059755;28;20501;-48
2022/07/16 00:58:42;;;;;;;8.37;6.13;;;13.80;75.90;;;;;;5055732;28;20502;-48
2022/07/16 01:01:09;;;;;;;6.37;5.70;;;13.80;76.70;;;;;;5061554;28;20469;-48
2022/07/16 01:03:37;;;;;;;9.27;4.97;;;13.80;76.60;;;;;;5066137;28;21069;-49
2022/07/16 01:06:04;;;;;;;8.07;5.90;;;13.70;76.30;;;;;;5060156;28;21075;-48
2022/07/16 01:08:33;;;;;;;8.03;6.50;;;13.60;76.60;;;;;;5062847;28;20494;-49
2022/07/16 01:11:00;;;;;;;9.33;5.30;;;13.60;77.10;;;;;;5052982;28;20490;-49
2022/07/16 01:13:28;;;;;;;5.47;4.97;;;13.40;77.60;;;;;;5062866;28;20485;-48
2022/07/16 01:15:55;;;;;;;6.50;5.80;;;13.30;78.20;;;;;;5062069;28;20665;-48
2022/07/16 01:18:22;;;;;;;7.23;6.23;;;13.10;78.20;;;;;;5054661;28;20849;-49
2022/07/16 01:20:49;;;;;;;8.77;7.77;;;13.00;78.50;;;;;;5054107;28;20482;-48
2022/07/16 01:23:21;;;;;;;6.10;5.27;;;13.00;78.20;;;;;;5059668;28;21022;-48
2022/07/16 01:25:49;;;;;;;8.93;8.00;;;12.90;78.10;;;;;;5056963;28;20481;-48
2022/07/16 01:28:16;;;;;;;7.40;5.67;;;12.90;78.10;;;;;;5064529;28;20844;-48
2022/07/16 01:30:43;;;;;;;8.13;7.33;;;12.90;78.00;;;;;;5061881;28;20483;-48
2022/07/16 01:33:21;;;;;;;8.53;7.07;;;12.90;78.10;;;;;;5066165;28;20481;-49
2022/07/16 01:35:48;;;;;;;9.10;7.40;;;12.90;78.80;;;;;;5057278;28;20500;-49
2022/07/16 01:38:14;;;;;;;7.50;6.07;;;12.90;78.00;;;;;;5062706;28;20481;-49
2022/07/16 01:40:43;;;;;;;7.20;6.50;;;12.90;78.30;;;;;;5058151;28;20489;-48
2022/07/16 01:43:14;;;;;;;8.73;6.20;;;12.90;77.50;;;;;;5052594;28;20490;-48
2022/07/16 01:45:40;;;;;;;6.57;5.97;;;12.90;77.60;;;;;;5048880;28;20483;-48
2022/07/16 01:48:07;;;;;;;15.97;5.83;;;12.80;77.90;;;;;;5066100;28;20479;-49
2022/07/16 01:50:34;;;;;;;5.60;5.20;;;12.70;78.00;;;;;;5061179;28;20493;-49
2022/07/16 01:53:01;;;;;;;9.97;6.80;;;12.70;78.70;;;;;;5061507;28;20481;-48
2022/07/16 01:55:28;;;;;;;7.10;6.40;;;12.60;77.60;;;;;;5058023;28;20998;-49
2022/07/16 01:57:56;;;;;;;8.43;6.40;;;12.70;78.30;;;;;;5055466;28;20481;-48
2022/07/16 02:00:23;;;;;;;7.27;6.50;;;12.70;78.80;;;;;;5062835;28;20572;-48
2022/07/16 02:02:50;;;;;;;8.53;7.47;;;12.70;78.50;;;;;;5058981;28;20485;-48
2022/07/16 02:05:16;;;;;;;7.30;5.87;;;12.60;78.70;;;;;;5062538;28;20482;-48
2022/07/16 02:07:43;;;;;;;7.33;6.63;;;12.50;78.50;;;;;;5057615;28;20975;-48
2022/07/16 02:10:10;;;;;;;8.00;6.20;;;12.50;78.50;;;;;;5064138;28;20481;-48
2022/07/16 02:12:37;;;;;;;6.27;5.77;;;12.30;78.80;;;;;;5064156;28;20489;-48
2022/07/16 02:15:07;;;;;;;6.57;5.90;;;12.30;78.80;;;;;;5056987;28;20493;-48
2022/07/16 02:17:34;;;;;;;7.53;6.40;;;12.30;78.30;;;;;;5057544;28;21014;-48
2022/07/16 02:20:01;;;;;;;9.43;5.43;;;12.30;78.30;;;;;;5054469;28;20487;-48
2022/07/16 02:22:29;;;;;;;8.47;5.90;;;12.30;79.00;;;;;;5060209;28;20527;-48
2022/07/16 02:24:55;;;;;;;7.53;6.83;;;12.30;78.00;;;;;;5058080;28;20500;-49
2022/07/16 02:27:22;;;;;;;9.87;6.33;;;12.30;78.10;;;;;;5066028;28;20501;-48
2022/07/16 02:29:49;;;;;;;6.87;6.27;;;12.30;77.80;;;;;;5055674;28;20493;-48
2022/07/16 02:32:17;;;;;;;5.67;5.07;;;12.40;78.40;;;;;;5066615;28;21542;-48
2022/07/16 02:34:44;;;;;;;7.43;6.10;;;12.40;78.40;;;;;;5059058;28;20660;-48
2022/07/16 02:37:11;;;;;;;6.00;5.40;;;12.30;78.10;;;;;;5065698;28;20493;-48
2022/07/16 02:39:37;;;;;;;8.47;5.00;;;12.20;78.70;;;;;;5059398;28;21354;-49
2022/07/16 02:42:04;;;;;;;8.73;5.77;;;12.10;79.10;;;;;;5061505;28;20485;-48
2022/07/16 02:44:31;;;;;;;6.40;5.80;;;11.90;79.20;;;;;;5057158;28;20758;-47
2022/07/16 02:46:58;;;;;;;9.53;6.47;;;11.80;79.60;;;;;;5057473;28;20504;-48
2022/07/16 02:49:26;;;;;;;6.33;5.73;;;11.80;80.10;;;;;;5065548;28;21005;-48
2022/07/16 02:51:52;;;;;;;7.40;6.60;;;11.70;79.00;;;;;;5038339;28;20513;-48
2022/07/16 02:54:19;;;;;;;9.00;6.83;;;11.80;78.60;;;;;;5061000;28;20478;-48
2022/07/16 02:56:46;;;;;;;8.50;7.10;;;11.80;78.70;;;;;;5060144;28;20484;-48
2022/07/16 02:59:13;;;;;;;6.73;6.13;;;11.80;79.40;;;;;;5063627;28;20730;-48
2022/07/16 03:01:39;;;;;;;6.27;5.70;;;11.80;79.20;;;;;;5057082;28;20498;-48
2022/07/16 03:04:06;;;;;;;5.97;5.43;;;11.80;79.50;;;;;;5058434;28;20492;-48
2022/07/16 03:06:35;;;;;;;6.77;5.80;;;11.70;79.40;;;;;;5050900;28;21176;-48
2022/07/16 03:09:01;;;;;;;6.50;5.83;;;11.70;79.10;;;;;;5049655;28;20483;-48
2022/07/16 03:11:28;;;;;;;5.70;5.20;;;11.60;79.40;;;;;;5052539;28;21214;-49
2022/07/16 03:13:55;;;;;;;10.93;6.43;;;11.60;79.50;;;;;;5057684;28;20497;-48
2022/07/16 03:16:21;;;;;;;7.60;6.80;;;11.50;79.60;;;;;;5052499;28;20489;-48
2022/07/16 03:18:48;;;;;;;9.37;7.30;;;11.40;80.80;;;;;;5041529;28;20495;-48
2022/07/16 03:21:15;;;;;;;6.70;5.97;;;11.40;80.30;;;;;;5059762;28;20502;-48
2022/07/16 03:23:43;;;;;;;12.53;6.60;;;11.40;80.00;;;;;;5061621;28;20490;-49
2022/07/16 03:26:10;;;;;;;7.13;6.43;;;11.40;79.80;;;;;;5061266;28;20476;-48
2022/07/16 03:28:37;;;;;;;6.03;5.50;;;11.40;80.40;;;;;;5057552;28;20490;-48
2022/07/16 03:31:04;;;;;;;12.23;6.73;;;11.20;80.40;;;;;;5054624;28;21091;-48
2022/07/16 03:33:30;;;;;;;5.77;5.27;;;11.20;80.50;;;;;;5056363;28;20986;-51
2022/07/16 03:35:57;;;;;;;6.90;5.97;;;11.20;80.50;;;;;;5062284;28;20489;-48
2022/07/16 03:41:10;;;;;;;7.17;6.00;;;11.30;80.50;;;;;;5051707;28;21001;-48
2022/07/16 03:43:36;;;;;;;6.80;6.10;;;11.30;80.70;;;;;;5059368;28;20660;-48
2022/07/16 03:46:03;;;;;;;6.70;6.10;;;11.30;80.60;;;;;;5051089;28;20477;-49
2022/07/16 03:48:30;;;;;;;6.67;5.97;;;11.30;80.80;;;;;;5065626;28;20491;-48
2022/07/16 03:50:56;;;;;;;6.53;5.80;;;11.30;80.30;;;;;;5059668;28;20474;-48
2022/07/16 03:53:23;;;;;;;6.83;6.13;;;11.30;80.70;;;;;;5050032;28;20480;-48
2022/07/16 03:55:50;;;;;;;11.17;7.80;;;11.20;80.40;;;;;;5059823;28;21010;-48
2022/07/16 03:58:18;;;;;;;6.57;5.83;;;11.10;81.00;;;;;;5057888;28;20776;-49
2022/07/16 04:00:44;;;;;;;7.20;6.60;;;11.00;81.20;;;;;;5055887;28;20889;-48
2022/07/16 04:03:11;;;;;;;6.90;6.20;;;11.00;81.10;;;;;;5007195;28;20917;-48
2022/07/16 04:05:38;;;;;;;6.70;6.10;;;11.00;80.70;;;;;;5053774;28;20486;-52
2022/07/16 04:08:05;;;;;;;7.00;6.27;;;11.00;80.90;;;;;;5062344;28;20485;-47
2022/07/16 04:10:31;;;;;;;9.83;6.30;;;11.00;80.80;;;;;;5051531;28;20552;-47
2022/07/16 04:12:58;;;;;;;6.57;5.97;;;11.00;81.40;;;;;;5057081;28;20492;-47
2022/07/16 04:15:26;;;;;;;7.93;5.73;;;11.00;81.40;;;;;;5058307;28;20817;-47
2022/07/16 04:17:53;;;;;;;7.43;6.77;;;11.10;81.10;;;;;;5054871;28;20492;-47
2022/07/16 04:20:20;;;;;;;8.20;5.43;;;11.10;81.80;;;;;;5057201;28;20573;-47
2022/07/16 04:22:46;;;;;;;8.37;7.53;;;11.10;82.40;;;;;;5055887;28;20860;-48
2022/07/16 04:25:13;;;;;;;7.63;6.43;;;11.10;82.10;;;;;;5056730;28;20502;-48
2022/07/16 04:27:40;;;;;;;7.60;6.40;;;11.10;81.60;;;;;;5048480;28;20556;-51
2022/07/16 04:30:09;;;;;;;7.97;6.57;;;11.10;82.20;;;;;;5063251;28;20481;-47
2022/07/16 04:32:37;;;;;;;9.20;6.70;;;11.10;81.30;;;;;;5057387;28;20466;-47
2022/07/16 04:35:06;;;;;;;7.30;6.53;;;11.10;82.40;;;;;;5058798;28;20838;-47
2022/07/16 04:37:33;;;;;;;8.73;7.17;;;11.00;83.50;;;;;;5059801;28;20479;-49
2022/07/16 04:40:00;;;;;;;9.40;6.10;;;11.00;84.30;;;;;;5059413;28;20479;-47
2022/07/16 04:42:27;;;;;;;9.47;7.30;;;10.90;84.30;;;;;;5071174;28;20499;-47
2022/07/16 04:44:53;;;;;;;8.07;7.23;;;11.00;83.70;;;;;;5065098;28;20496;-47
2022/07/16 04:47:20;;;;;;;8.00;7.17;;;11.10;84.00;;;;;;5064793;28;20482;-47
2022/07/16 04:49:48;;;;;;;11.60;8.30;;;11.30;84.70;;;;;;5065416;28;20484;-47
2022/07/16 04:52:15;;;;;;;9.23;7.83;;;11.30;85.40;;;;;;5062019;28;20491;-48
2022/07/16 04:54:41;;;;;;;9.07;8.17;;;11.30;85.90;;;;;;5065135;28;20492;-48
2022/07/16 04:57:08;;;;;;;10.40;7.47;;;11.40;85.70;;;;;;5062808;28;20483;-47
2022/07/16 04:59:35;;;;;;;8.20;7.20;;;11.40;86.30;;;;;;5061858;28;20479;-48
2022/07/16 05:04:42;;;;;;;7.30;6.60;;;11.80;85.60;;;;;;5047626;28;20464;-48
2022/07/16 05:07:10;;;;;;;8.60;7.70;;;11.90;85.20;;;;;;5059858;28;20478;-48
2022/07/16 05:09:37;;;;;;;8.73;6.57;;;11.90;85.80;;;;;;5035517;28;20481;-47
2022/07/16 05:12:04;;;;;;;9.63;7.03;;;12.00;86.00;;;;;;5056875;28;20483;-47
2022/07/16 05:14:31;;;;;;;10.33;8.00;;;12.10;86.60;;;;;;5058922;28;20488;-47
2022/07/16 05:16:57;;;;;;;8.10;7.27;;;12.20;86.20;;;;;;5057868;28;20473;-47
2022/07/16 05:19:24;;;;;;;7.50;6.80;;;12.20;86.70;;;;;;5061126;28;20480;-47
2022/07/16 05:21:51;;;;;;;9.10;8.30;;;12.30;86.90;;;;;;5064968;28;20759;-48
2022/07/16 05:24:19;;;;;;;7.87;7.07;;;12.40;87.10;;;;;;5058055;28;20852;-48
2022/07/16 05:26:46;;;;;;;12.70;8.70;;;12.50;87.10;;;;;;5059989;28;20479;-48
2022/07/16 05:29:12;;;;;;;11.70;8.93;;;12.50;86.70;;;;;;5061059;28;20998;-48
2022/07/16 05:31:39;;;;;;;13.30;8.90;;;12.50;87.10;;;;;;5060579;28;20476;-48
2022/07/16 05:34:06;;;;;;;8.80;8.00;;;12.60;87.70;;;;;;5065796;28;20675;-48
2022/07/16 05:36:32;;;;;;;11.33;7.47;;;12.70;87.30;;;;;;5049607;28;20911;-48
2022/07/16 05:38:59;;;;;;;9.10;7.73;;;;;;;;;;5060800;28;20486;-48
2022/07/16 05:41:27;;;;;;;12.77;8.83;;;12.90;88.50;;;;;;5059947;28;20537;-48
2022/07/16 05:43:54;;;;;;;12.80;9.47;;;12.90;89.00;;;;;;5057844;28;20495;-47
2022/07/16 05:46:21;;;;;;;10.47;7.73;;;13.10;88.90;;;;;;5061631;28;20479;-48
2022/07/16 05:48:48;;;;;;;8.50;7.60;;;13.20;88.60;;;;;;5056843;28;20511;-48
2022/07/16 05:51:14;;;;;;;8.90;8.00;;;13.30;89.00;;;;;;5045735;28;20484;-48
2022/07/16 05:53:41;;;;;;;11.40;7.97;;;13.40;89.60;;;;;;5050568;28;21045;-48
2022/07/16 05:56:08;;;;;;;14.43;9.17;;;13.60;89.10;;;;;;5056900;28;20480;-48
2022/07/16 05:58:36;;;;;;;10.50;9.23;;;13.90;89.60;;;;;;5050318;28;20534;-48
2022/07/16 06:01:03;;;;;;;8.80;7.97;;;14.00;89.50;;;;;;5065372;28;20840;-48
2022/07/16 06:03:29;;;;;;;11.87;7.67;;;14.30;87.40;;;;;;5059849;28;20487;-48
2022/07/16 06:05:56;;;;;;;10.70;8.93;;;14.30;87.80;;;;;;5059234;28;20497;-49
2022/07/16 06:08:23;;;;;;;16.33;8.53;;;14.50;86.20;;;;;;5059541;28;20499;-49
2022/07/16 06:10:49;;;;;;;11.93;9.40;;;14.70;87.10;;;;;;5068184;28;20522;-49
2022/07/16 06:13:16;;;;;;;14.60;9.20;;;15.00;85.80;;;;;;5063070;28;20486;-51
2022/07/16 06:15:44;;;;;;;11.50;9.00;;;15.30;84.10;;;;;;5045124;28;20486;-49
2022/07/16 06:18:11;;;;;;;8.80;7.90;;;15.70;84.10;;;;;;5058721;28;20493;-49
2022/07/16 06:20:37;;;;;;;8.07;7.33;;;15.70;84.60;;;;;;5062208;28;20481;-49
2022/07/16 06:23:04;;;;;;;7.00;6.40;;;16.10;84.10;;;;;;5062773;28;20481;-49
2022/07/16 06:25:32;;;;;;;8.30;7.20;;;16.60;82.20;;;;;;5053361;28;20486;-49
2022/07/16 06:27:59;;;;;;;8.23;6.83;;;16.70;81.50;;;;;;5045812;28;21154;-50
2022/07/16 06:30:25;;;;;;;7.00;6.37;;;16.90;81.70;;;;;;5059976;28;20482;-49
2022/07/16 06:32:55;;;;;;;13.83;6.80;;;17.10;81.00;;;;;;5047707;28;20799;-49
2022/07/16 06:35:22;;;;;;;10.90;6.83;;;17.60;80.30;;;;;;5063986;28;20477;-49
2022/07/16 06:37:49;;;;;;;7.13;6.23;;;17.60;80.70;;;;;;5062774;28;20488;-50
2022/07/16 06:40:15;;;;;;;6.47;5.77;;;18.00;80.20;;;;;;5052233;28;20484;-50
2022/07/16 06:42:42;;;;;;;10.00;5.90;;;18.30;77.80;;;;;;5067724;28;20478;-49
2022/07/16 06:45:10;;;;;;;6.77;6.10;;;18.50;77.30;;;;;;5059507;28;20906;-49
2022/07/16 06:47:37;;;;;;;10.30;6.20;;;19.00;76.80;;;;;;5049527;28;20491;-49
2022/07/16 06:50:05;;;;;;;9.37;5.90;;;19.20;74.30;;;;;;5060636;28;20479;-49
2022/07/16 06:52:32;;;;;;;7.17;5.57;;;19.50;75.00;;;;;;5061802;28;20494;-54
2022/07/16 06:54:59;;;;;;;7.17;5.53;;;19.70;75.40;;;;;;5061070;28;20480;-49
2022/07/16 06:57:26;;;;;;;7.20;4.93;;;19.90;73.60;;;;;;5061100;28;20992;-49
2022/07/16 06:59:52;;;;;;;5.10;4.70;;;20.10;73.40;;;;;;5061130;28;20486;-49
2022/07/16 07:02:19;;;;;;;5.47;3.90;;;20.30;70.70;;;;;;5065909;28;21038;-51
2022/07/16 07:04:46;;;;;;;4.50;4.10;;;20.40;70.20;;;;;;5057836;28;20501;-49
2022/07/16 07:07:14;;;;;;;5.57;4.23;;;20.80;68.60;;;;;;5059242;28;20471;-50
2022/07/16 07:09:40;;;;;;;4.33;3.93;;;20.90;69.00;;;;;;5055936;28;20479;-49
2022/07/16 07:12:07;;;;;;;5.63;4.27;;;21.20;69.00;;;;;;5050547;28;20498;-49
2022/07/16 07:14:34;;;;;;;5.97;4.77;;;21.50;68.30;;;;;;5054498;28;20482;-50
2022/07/16 07:17:01;;;;;;;4.93;4.53;;;21.50;69.00;;;;;;5057976;28;20482;-50
2022/07/16 07:19:27;;;;;;;5.50;3.80;;;21.80;68.70;;;;;;5058776;28;20481;-50
2022/07/16 07:21:54;;;;;;;6.43;4.73;;;22.20;67.80;;;;;;5058321;28;20483;-50
2022/07/16 07:24:22;;;;;;;5.20;3.80;;;22.40;67.20;;;;;;5053939;28;20812;-52
2022/07/16 07:26:49;;;;;;;7.47;3.97;;;22.60;66.50;;;;;;5042595;28;20485;-50
2022/07/16 07:29:15;;;;;;;7.87;4.57;;;22.70;66.60;;;;;;5058356;28;20482;-50
2022/07/16 07:31:42;;;;;;;3.90;3.17;;;23.10;65.40;;;;;;5048072;28;20482;-49
2022/07/16 07:34:09;;;;;;;4.13;3.20;;;23.20;64.30;;;;;;5055692;28;20478;-49
2022/07/16 07:36:35;;;;;;;4.40;3.50;;;23.30;65.30;;;;;;5059570;28;20482;-49
2022/07/16 07:39:02;;;;;;;4.53;2.83;;;23.50;64.00;;;;;;5057587;28;20491;-50
2022/07/16 07:41:30;;;;;;;7.43;3.03;;;23.70;61.60;;;;;;5060515;28;20489;-50
2022/07/16 07:43:57;;;;;;;3.63;2.63;;;23.90;60.60;;;;;;5051519;28;20479;-51
2022/07/16 07:46:24;;;;;;;3.80;2.60;;;23.90;61.20;;;;;;5056338;28;20483;-50
2022/07/16 07:48:51;;;;;;;3.23;2.40;;;24.10;61.60;;;;;;5068753;28;20557;-50
2022/07/16 07:51:18;;;;;;;5.53;2.30;;;24.20;60.70;;;;;;5062763;28;20481;-50
2022/07/16 07:53:44;;;;;;;3.90;2.73;;;24.40;61.10;;;;;;5062478;28;20482;-51
2022/07/16 07:56:12;;;;;;;2.90;2.33;;;24.50;60.20;;;;;;5053054;28;20491;-49
2022/07/16 07:58:40;;;;;;;3.70;1.93;;;24.60;59.70;;;;;;5057234;28;20490;-49
2022/07/16 08:01:07;;;;;;;6.80;2.53;;;24.60;59.50;;;;;;5044170;28;20582;-49
2022/07/16 08:03:34;;;;;;;2.67;1.50;;;24.70;59.60;;;;;;5051911;28;20992;-50
2022/07/16 08:06:00;;;;;;;4.80;2.17;;;24.90;59.20;;;;;;5055414;28;20988;-50
2022/07/16 08:08:27;;;;;;;5.30;2.13;;;24.80;59.60;;;;;;5048870;28;20472;-51
2022/07/16 08:10:54;;;;;;;5.70;2.53;;;24.90;58.60;;;;;;5046655;28;20491;-50
2022/07/16 08:13:21;;;;;;;3.87;1.73;;;25.30;58.90;;;;;;5057941;28;21035;-49
2022/07/16 08:15:49;;;;;;;4.10;1.97;;;25.20;59.30;;;;;;5062795;28;20497;-50
2022/07/16 08:18:15;;;;;;;2.83;1.90;;;25.40;58.00;;;;;;5057584;28;20817;-50
2022/07/16 08:20:42;;;;;;;6.13;1.77;;;25.50;57.20;;;;;;5042842;28;20482;-50
2022/07/16 08:23:09;;;;;;;4.47;2.27;;;25.60;57.50;;;;;;5059703;28;20513;-50
2022/07/16 08:25:46;;;;;;;4.03;2.17;;;25.90;58.00;;;;;;5056192;28;20483;-50
2022/07/16 08:28:14;;;;;;;3.70;1.47;;;26.10;57.00;;;;;;5058060;28;20488;-50
2022/07/16 08:30:41;;;;;;;3.60;1.60;;;26.60;56.60;;;;;;5055366;28;20486;-50
2022/07/16 08:33:09;;;;;;;4.43;1.70;;;26.70;57.20;;;;;;5059382;28;20474;-50
2022/07/16 08:35:36;;;;;;;3.23;1.60;;;26.90;55.60;;;;;;5059375;28;20489;-50
2022/07/16 08:38:03;;;;;;;2.97;2.00;;;27.00;56.60;;;;;;5053979;28;20479;-50
2022/07/16 08:40:30;;;;;;;2.93;1.80;;;27.10;56.30;;;;;;5063238;28;21484;-50
2022/07/16 08:42:57;;;;;;;3.80;1.40;;;27.10;56.80;;;;;;5062021;28;20874;-47
2022/07/16 08:45:24;;;;;;;4.40;2.13;;;27.20;54.10;;;;;;5058055;28;20993;-50
2022/07/16 08:47:52;;;;;;;3.33;2.17;;;27.20;54.10;;;;;;5064451;28;20473;-51
2022/07/16 08:50:20;;;;;;;2.87;1.93;;;27.20;55.30;;;;;;5060690;28;20510;-51
2022/07/16 08:52:50;;;;;;;2.70;2.07;;;27.30;56.20;;;;;;5064546;28;20471;-50
2022/07/16 08:55:17;;;;;;;6.90;2.20;;;27.30;55.00;;;;;;5067771;28;21046;-50
2022/07/16 08:57:47;;;;;;;4.20;2.27;;;27.30;52.30;;;;;;5052037;28;20515;-50
2022/07/16 09:00:14;;;;;;;3.13;1.87;;;27.30;55.00;;;;;;5055935;28;20561;-51
2022/07/16 09:02:41;;;;;;;3.60;2.10;;;27.30;55.10;;;;;;5054204;28;20466;-52
2022/07/16 09:05:09;;;;;;;3.57;1.73;;;27.30;55.40;;;;;;5061831;28;20478;-52
2022/07/16 09:07:38;;;;;;;4.27;3.87;;;27.70;54.90;;;;;;5048745;28;20483;-52
2022/07/16 09:10:07;;;;;;;20.63;18.47;;;27.80;54.60;;;;;;5057029;28;20909;-50
2022/07/16 09:12:37;;;;;;;3.67;2.63;;;27.80;52.90;;;;;;5058289;28;20483;-52
2022/07/16 09:15:26;;;;;;;6.13;1.90;;;27.70;51.20;;;;;;5053161;28;20492;-52
2022/07/16 09:18:09;;;;;;;2.93;2.17;;;27.40;54.20;;;;;;5051203;28;20474;-52
2022/07/16 09:20:37;;;;;;;2.70;2.20;;;27.50;55.80;;;;;;5050682;28;20497;-52
2022/07/16 09:23:05;;;;;;;3.83;3.50;;;27.60;54.60;;;;;;5058541;28;20485;-52
2022/07/16 09:25:31;;;;;;;2.30;1.70;;;27.80;55.30;;;;;;5064765;28;21070;-49
2022/07/16 09:27:59;;;;;;;4.47;2.17;;;27.90;53.50;;;;;;5056935;28;20478;-50
2022/07/16 09:30:28;;;;;;;2.60;2.00;;;27.90;54.80;;;;;;5058398;28;20474;-50
2022/07/16 09:32:55;;;;;;;6.47;1.90;;;28.00;54.70;;;;;;5060774;28;21546;-50
2022/07/16 09:35:22;;;;;;;2.97;1.90;;;28.30;53.30;;;;;;5055803;28;20482;-51
2022/07/16 09:37:52;;;;;;;3.90;2.40;;;28.30;52.90;;;;;;5056959;28;20482;-52
2022/07/16 09:40:32;;;;;;;2.57;2.37;;;28.40;52.30;;;;;;5058930;28;20558;-52
2022/07/16 09:42:59;;;;;;;3.23;2.07;;;28.00;51.00;;;;;;5047510;28;20486;-53
2022/07/16 09:45:26;;;;;;;2.40;1.63;;;28.00;52.30;;;;;;5046137;28;20449;-50
2022/07/16 09:47:53;;;;;;;2.20;1.80;;;27.60;54.50;;;;;;5056337;28;20487;-52
2022/07/16 09:50:20;;;;;;;3.53;1.83;;;27.80;54.00;;;;;;5061210;28;20471;-52
2022/07/16 09:52:47;;;;;;;2.30;2.10;;;27.90;54.30;;;;;;5056340;28;20490;-52
2022/07/16 09:55:13;;;;;;;2.33;1.80;;;28.00;54.60;;;;;;5060704;28;20483;-53
2022/07/16 09:57:43;;;;;;;2.83;1.97;;;28.00;55.10;;;;;;5058235;28;21003;-52
2022/07/16 10:00:10;;;;;;;3.70;1.60;;;28.30;53.30;;;;;;5058860;28;20874;-53
2022/07/16 10:02:37;;;;;;;4.07;1.87;;;28.50;54.20;;;;;;5054916;28;21489;-51
2022/07/16 10:05:04;;;;;;;5.03;2.20;;;28.20;51.50;;;;;;5056782;28;20477;-52
2022/07/16 10:07:31;;;;;;;2.47;1.97;;;28.10;52.90;;;;;;5058291;28;20840;-53
2022/07/16 10:09:59;;;;;;;2.40;1.47;;;28.40;54.30;;;;;;5059136;28;20835;-52
2022/07/16 10:12:26;;;;;;;3.20;1.83;;;28.40;52.30;;;;;;5059198;28;20550;-51
2022/07/16 10:14:56;;;;;;;4.00;2.13;;;28.50;52.70;;;;;;5048677;28;20478;-52
2022/07/16 10:17:31;;;;;;;2.60;2.30;;;28.80;52.80;;;;;;5052162;28;20478;-52
2022/07/16 10:20:00;;;;;;;4.40;3.40;;;28.80;51.70;;;;;;5020724;28;20843;-52
2022/07/16 10:22:29;;;;;;;5.37;2.30;;;;;;;;;;5058484;28;20472;-49
2022/07/16 10:24:57;;;;;;;3.57;2.07;;;29.10;51.50;;;;;;5058241;28;20473;-48
2022/07/16 10:27:28;;;;;;;2.20;1.83;;;29.10;53.00;;;;;;5056125;28;21032;-52
2022/07/16 10:30:18;;;;;;;2.97;2.17;;;29.20;52.70;;;;;;5055631;28;20542;-51
2022/07/16 10:33:17;;;;;;;10.17;6.43;;;29.30;51.60;;;;;;5056178;28;20849;-51
2022/07/16 10:35:47;;;;;;;4.40;3.50;;;29.50;53.20;;;;;;5053554;28;20578;-51
2022/07/16 10:38:16;;;;;;;3.03;2.47;;;29.90;51.90;;;;;;5054340;28;21008;-52
2022/07/16 10:40:45;;;;;;;4.87;2.37;;;29.80;52.30;;;;;;5051133;28;20987;-51
2022/07/16 10:43:17;;;;;;;4.37;2.47;;;30.10;50.40;;;;;;5049562;28;20494;-51
2022/07/16 10:45:54;;;;;;;2.60;2.00;;;30.10;50.40;;;;;;5052501;28;20486;-52
2022/07/16 10:48:21;;;;;;;3.20;2.60;;;29.90;49.50;;;;;;5055863;28;20532;-52
2022/07/16 10:51:10;;;;;;;3.30;2.70;;;29.60;50.70;;;;;;5057763;28;21011;-52
2022/07/16 10:54:18;;;;;;;3.17;2.70;;;29.50;49.40;;;;;;5046437;28;21052;-53
2022/07/16 10:56:47;;;;;;;3.20;2.77;;;29.50;51.70;;;;;;4998329;28;20445;-50
2022/07/16 10:59:16;;;;;;;2.23;1.80;;;29.60;50.80;;;;;;5056459;28;20996;-51
2022/07/16 11:01:45;;;;;;;3.10;2.10;;;29.60;50.80;;;;;;5056864;28;20510;-50
2022/07/16 11:04:13;;;;;;;1.90;1.57;;;29.50;50.20;;;;;;5059587;28;20478;-50
2022/07/16 11:06:41;;;;;;;5.60;2.30;;;29.70;49.70;;;;;;5058962;28;20479;-50
2022/07/16 11:09:09;;;;;;;7.63;3.03;;;29.70;50.70;;;;;;5058848;28;21466;-50
2022/07/16 11:11:38;;;;;;;3.33;2.00;;;29.90;53.60;;;;;;5055200;28;20479;-50
2022/07/16 11:14:06;;;;;;;3.63;2.00;;;29.70;50.50;;;;;;5054725;28;21045;-50
2022/07/16 11:16:33;;;;;;;3.07;2.20;;;29.90;49.90;;;;;;5060628;28;20454;-52
2022/07/16 11:19:03;;;;;;;6.53;1.77;;;29.90;50.30;;;;;;5029789;28;20864;-51
2022/07/16 11:21:30;;;;;;;4.57;2.33;;;30.00;51.50;;;;;;5029007;28;20513;-51
2022/07/16 11:23:59;;;;;;;3.37;2.07;;;30.00;49.30;;;;;;5055546;28;20927;-52
2022/07/16 11:26:26;;;;;;;2.40;1.80;;;30.10;49.50;;;;;;5057409;28;20488;-51
2022/07/16 11:28:55;;;;;;;2.53;1.97;;;30.10;49.90;;;;;;5056649;28;20486;-51
2022/07/16 11:31:27;;;;;;;2.20;1.63;;;30.30;49.70;;;;;;5060702;28;20853;-51
2022/07/16 11:33:57;;;;;;;2.10;1.60;;;30.30;50.20;;;;;;5056926;28;20920;-50
2022/07/16 11:36:29;;;;;;;2.30;1.63;;;30.20;49.40;;;;;;5056290;28;20486;-50
2022/07/16 11:38:58;;;;;;;4.37;1.90;;;30.30;50.40;;;;;;5057262;28;20483;-52
2022/07/16 11:41:24;;;;;;;2.47;1.60;;;30.50;52.80;;;;;;5057135;28;21752;-51
2022/07/16 11:43:51;;;;;;;3.40;2.07;;;30.70;51.30;;;;;;5058004;28;20491;-52
2022/07/16 11:46:23;;;;;;;2.27;1.57;;;30.90;50.00;;;;;;5053895;28;21046;-51
2022/07/16 11:48:50;;;;;;;3.80;2.20;;;31.10;50.00;;;;;;5054234;28;20509;-51
2022/07/16 11:51:18;;;;;;;4.03;1.90;;;31.20;50.90;;;;;;5048927;28;21011;-52
2022/07/16 11:53:50;;;;;;;2.30;1.80;;;31.40;49.90;;;;;;5054296;28;20570;-52
2022/07/16 11:56:31;;;;;;;2.00;1.70;;;31.60;48.30;;;;;;5051696;28;20461;-51
2022/07/16 11:58:57;;;;;;;2.73;1.97;;;31.30;47.80;;;;;;5054032;28;20961;-51
2022/07/16 12:01:25;;;;;;;1.83;1.43;;;31.10;47.80;;;;;;5043967;28;20475;-52
2022/07/16 12:03:55;;;;;;;3.60;2.30;;;31.00;49.00;;;;;;5057036;28;20484;-53
2022/07/16 12:06:22;;;;;;;2.30;1.67;;;30.90;49.40;;;;;;5057287;28;20486;-51
2022/07/16 12:08:54;;;;;;;2.37;1.90;;;30.70;49.70;;;;;;5032265;28;20450;-53
2022/07/16 12:11:21;;;;;;;2.50;2.17;;;30.80;50.20;;;;;;5058619;28;20491;-52
2022/07/16 12:13:54;;;;;;;3.70;2.50;;;30.90;49.00;;;;;;5055962;28;20483;-54
2022/07/16 12:16:22;;;;;;;2.10;1.73;;;31.10;49.30;;;;;;5051421;28;20497;-53
2022/07/16 12:19:06;;;;;;;4.97;2.60;;;31.10;49.60;;;;;;5053401;28;20904;-53
2022/07/16 12:21:34;;;;;;;3.50;1.97;;;31.20;48.40;;;;;;5047408;28;20462;-52
2022/07/16 12:24:03;;;;;;;2.50;1.90;;;31.30;49.10;;;;;;5050964;28;20537;-52
2022/07/16 12:26:32;;;;;;;2.40;2.20;;;31.20;48.00;;;;;;5052899;28;20449;-53
2022/07/16 12:28:59;;;;;;;3.03;2.50;;;31.30;47.40;;;;;;5055928;28;20446;-52
2022/07/16 12:31:31;;;;;;;4.90;1.97;;;31.50;48.50;;;;;;5055625;28;20481;-52
2022/07/16 12:33:59;;;;;;;5.13;2.53;;;31.70;47.50;;;;;;5039240;28;20809;-51
2022/07/16 12:36:30;;;;;;;2.80;2.07;;;31.90;46.60;;;;;;5047728;28;20478;-52
2022/07/16 12:39:00;;;;;;;4.10;2.20;;;32.10;47.70;;;;;;5051009;28;20465;-52
2022/07/16 12:41:30;;;;;;;2.67;2.30;;;32.00;48.50;;;;;;5057078;28;20470;-52
2022/07/16 12:43:59;;;;;;;2.57;2.37;;;31.90;47.50;;;;;;5056195;28;20474;-53
2022/07/16 12:46:27;;;;;;;3.20;2.30;;;31.60;47.50;;;;;;5053851;28;20490;-52
2022/07/16 12:48:56;;;;;;;2.13;1.93;;;31.50;48.10;;;;;;5058929;28;20453;-52
2022/07/16 12:51:27;;;;;;;2.63;1.90;;;31.60;49.10;;;;;;5061765;28;20453;-53
2022/07/16 12:53:54;;;;;;;2.60;2.20;;;31.50;49.80;;;;;;5057815;28;20470;-52
2022/07/16 12:59:08;;;;;;;6.47;2.80;;;31.90;48.70;;;;;;5034015;28;20526;-52